Time;durP1;ratioP1;P1;durP2;ratioP2;P2;SDS_P1;SDS_P2;PMS_P1;PMS_P2;Temp;Humidity;BMP_temperature;BMP_pressure;BME280_temperature;BME280_humidity;BME280_pressure;Samples;Min_cycle;Max_cycle;Signal;HPM_P1;HPM_P2
2021/10/25 00:00:57;;;;;;;2.62;1.40;;;;;;;13.25;36.48;103221.52;1729509;82;21086;-51
2021/10/25 00:03:23;;;;;;;2.05;1.22;;;;;;;13.25;36.55;103225.44;1727921;82;21078;-52
2021/10/25 00:05:52;;;;;;;1.55;1.30;;;;;;;13.23;36.26;103221.94;1726085;82;20999;-52
2021/10/25 00:08:18;;;;;;;3.75;1.52;;;;;;;13.20;36.41;103224.52;1725922;82;21471;-51
2021/10/25 00:10:46;;;;;;;1.60;1.25;;;;;;;13.21;36.55;103223.67;1732227;82;21035;-50
2021/10/25 00:13:12;;;;;;;3.08;1.65;;;;;;;13.18;36.08;103226.25;1730019;82;21071;-51
2021/10/25 00:15:41;;;;;;;1.57;1.37;;;;;;;13.17;36.58;103233.67;1714090;82;21018;-53
2021/10/25 00:18:09;;;;;;;1.47;1.30;;;;;;;13.17;37.30;103228.44;1729673;82;21511;-52
2021/10/25 00:20:39;;;;;;;1.60;1.47;;;;;;;13.16;36.72;103227.98;1699499;83;21029;-51
2021/10/25 00:23:06;;;;;;;2.45;1.30;;;;;;;13.16;36.44;103224.94;1711312;83;21538;-50
2021/10/25 00:25:34;;;;;;;1.75;1.40;;;;;;;13.17;36.84;103227.98;1701053;83;21035;-51
2021/10/25 00:28:01;;;;;;;1.62;1.40;;;;;;;13.18;36.69;103232.78;1706369;83;20947;-52
2021/10/25 00:30:29;;;;;;;3.22;1.37;;;;;;;13.17;36.39;103221.91;1706092;83;21472;-52
2021/10/25 00:32:56;;;;;;;1.82;1.40;;;;;;;13.17;36.43;103229.28;1701815;83;20987;-54
2021/10/25 00:35:23;;;;;;;2.37;1.62;;;;;;;13.16;37.26;103222.33;1709399;83;21534;-53
2021/10/25 00:37:49;;;;;;;1.72;1.50;;;;;;;13.15;37.44;103228.86;1703581;83;21054;-50
2021/10/25 00:40:16;;;;;;;3.02;1.60;;;;;;;13.13;37.35;103234.05;1705454;83;21026;-50
2021/10/25 00:42:44;;;;;;;2.55;1.30;;;;;;;13.14;37.72;103233.63;1704650;83;21054;-52
2021/10/25 00:45:11;;;;;;;2.40;1.55;;;;;;;13.15;37.76;103223.63;1704048;83;21002;-51
2021/10/25 00:47:39;;;;;;;2.45;1.62;;;;;;;13.17;37.51;103229.74;1702810;83;21641;-51
2021/10/25 00:50:07;;;;;;;1.72;1.50;;;;;;;13.18;37.94;103223.63;1710915;83;21031;-55
2021/10/25 00:52:36;;;;;;;1.87;1.50;;;;;;;13.18;38.07;103227.13;1730036;82;21526;-51
2021/10/25 00:55:03;;;;;;;2.08;1.40;;;;;;;13.20;37.93;103224.09;1727767;82;20965;-52
2021/10/25 00:57:30;;;;;;;1.95;1.60;;;;;;;13.21;37.84;103221.05;1741992;81;21583;-49
2021/10/25 00:59:57;;;;;;;2.27;1.65;;;;;;;13.23;38.19;103220.63;1735102;82;21003;-51
2021/10/25 01:02:23;;;;;;;2.05;1.72;;;;;;;13.25;38.14;103225.44;1726912;82;21035;-51
2021/10/25 01:04:50;;;;;;;1.70;1.40;;;;;;;13.25;38.18;103225.44;1733511;82;21019;-50
2021/10/25 01:07:17;;;;;;;1.60;1.50;;;;;;;13.26;38.27;103223.25;1737491;82;21392;-51
2021/10/25 01:09:44;;;;;;;3.33;1.60;;;;;;;13.24;37.96;103223.67;1735674;82;21579;-52
2021/10/25 01:12:11;;;;;;;1.95;1.72;;;;;;;13.23;37.95;103221.94;1737319;82;21018;-52
2021/10/25 01:14:38;;;;;;;2.30;1.80;;;;;;;13.22;37.70;103228.02;1738414;82;21026;-51
2021/10/25 01:17:05;;;;;;;2.85;1.50;;;;;;;13.21;37.63;103240.20;1732007;82;21479;-50
2021/10/25 01:19:31;;;;;;;3.08;1.72;;;;;;;13.18;37.06;103238.02;1727652;81;21022;-51
2021/10/25 01:22:01;;;;;;;2.08;1.72;;;;;;;13.17;37.53;103244.13;1735957;82;21058;-50
2021/10/25 01:24:28;;;;;;;3.25;1.82;;;;;;;13.17;37.87;103240.20;1735533;81;21059;-52
2021/10/25 01:26:55;;;;;;;1.90;1.62;;;;;;;13.17;37.50;103240.20;1735436;82;21019;-50
2021/10/25 01:29:21;;;;;;;5.67;1.95;;;;;;;13.17;37.34;103240.20;1732850;82;21498;-55
2021/10/25 01:31:50;;;;;;;2.12;1.57;;;;;;;13.16;37.60;103241.05;1738535;82;21019;-51
2021/10/25 01:34:17;;;;;;;1.80;1.42;;;;;;;13.15;38.07;103243.23;1737533;82;21558;-52
2021/10/25 01:36:44;;;;;;;2.27;1.77;;;;;;;13.15;38.11;103249.77;1735923;82;21034;-52
2021/10/25 01:39:11;;;;;;;3.58;1.70;;;;;;;13.17;38.07;103248.89;1737858;82;21002;-53
2021/10/25 01:41:38;;;;;;;3.02;1.75;;;;;;;13.17;38.17;103251.97;1738342;82;21035;-51
2021/10/25 01:44:11;;;;;;;1.95;1.65;;;;;;;13.17;38.19;103253.27;1738448;82;21019;-49
2021/10/25 01:46:38;;;;;;;2.87;1.65;;;;;;;13.16;37.89;103251.50;1725406;82;20986;-52
2021/10/25 01:49:05;;;;;;;3.62;1.92;;;;;;;13.14;37.88;103254.55;1734335;82;21530;-51
2021/10/25 01:51:33;;;;;;;3.08;1.82;;;;;;;13.13;38.21;103268.04;1725333;82;21089;-51
2021/10/25 01:54:00;;;;;;;2.52;1.60;;;;;;;13.16;38.41;103272.42;1731854;82;21034;-53
2021/10/25 01:56:28;;;;;;;2.27;1.98;;;;;;;13.15;37.76;103274.61;1738613;82;21066;-51
2021/10/25 01:58:57;;;;;;;2.37;1.70;;;;;;;13.13;37.72;103273.72;1737272;82;21074;-50
2021/10/25 02:01:24;;;;;;;3.27;1.90;;;;;;;13.11;38.03;103271.53;1734945;81;21534;-52
2021/10/25 02:03:52;;;;;;;2.67;1.75;;;;;;;13.10;38.15;103272.38;1738616;82;21551;-51
2021/10/25 02:06:20;;;;;;;3.10;1.90;;;;;;;13.11;37.98;103280.67;1738535;82;21078;-50
2021/10/25 02:08:47;;;;;;;2.25;1.50;;;;;;;13.11;38.32;103285.45;1736381;82;21719;-52
2021/10/25 02:11:16;;;;;;;2.25;1.82;;;;;;;13.11;38.03;103285.91;1735557;81;21046;-51
2021/10/25 02:13:45;;;;;;;3.90;2.05;;;;;;;13.10;37.96;103286.75;1731695;82;21042;-52
2021/10/25 02:16:12;;;;;;;3.47;1.92;;;;;;;13.06;38.02;103285.41;1731126;82;21031;-53
2021/10/25 02:18:40;;;;;;;2.30;1.75;;;;;;;13.06;38.22;103290.64;1734612;82;21050;-51
2021/10/25 02:21:09;;;;;;;1.92;1.60;;;;;;;13.08;38.05;103295.90;1686523;84;21046;-52
2021/10/25 02:23:36;;;;;;;3.02;1.67;;;;;;;13.06;37.82;103299.78;1686560;85;21105;-50
2021/10/25 02:26:04;;;;;;;2.47;1.82;;;;;;;13.03;38.54;103296.24;1686652;85;21475;-52
2021/10/25 02:28:33;;;;;;;1.80;1.50;;;;;;;13.03;38.52;103304.97;1686392;85;21035;-51
2021/10/25 02:31:00;;;;;;;2.52;1.37;;;;;;;13.04;38.18;103296.73;1660295;86;21043;-51
2021/10/25 02:33:35;;;;;;;2.83;1.57;;;;;;;12.99;38.40;103299.27;1647796;86;21095;-52
2021/10/25 02:36:05;;;;;;;3.25;1.30;;;;;;;12.95;37.68;103300.11;1658000;86;20979;-53
2021/10/25 02:38:32;;;;;;;2.02;1.72;;;;;;;12.90;37.52;103300.94;1635605;86;21616;-53
2021/10/25 02:40:58;;;;;;;4.20;1.45;;;;;;;12.87;37.60;103297.86;1652867;86;21067;-49
2021/10/25 02:43:26;;;;;;;1.98;1.62;;;;;;;12.84;37.78;103305.66;1658139;86;21071;-51
2021/10/25 02:45:53;;;;;;;2.90;1.70;;;;;;;12.82;38.27;103300.85;1656937;86;21579;-53
2021/10/25 02:48:20;;;;;;;2.10;1.37;;;;;;;12.80;37.83;103302.57;1657731;86;21042;-51
2021/10/25 02:50:47;;;;;;;2.22;1.05;;;;;;;12.77;37.77;103301.25;1657717;86;21058;-54
2021/10/25 02:53:14;;;;;;;1.67;1.05;;;;;;;12.74;38.02;103301.21;1652491;86;21039;-52
2021/10/25 02:55:42;;;;;;;2.00;1.12;;;;;;;12.72;37.91;103300.32;1658429;86;21067;-50
2021/10/25 02:58:08;;;;;;;1.17;1.07;;;;;;;12.69;38.16;103301.62;1658302;86;21638;-52
2021/10/25 03:00:35;;;;;;;1.55;1.10;;;;;;;12.68;38.37;103302.46;1658367;86;21076;-52
2021/10/25 03:03:03;;;;;;;1.25;0.88;;;;;;;12.65;38.51;103309.40;1658490;86;21024;-52
2021/10/25 03:05:32;;;;;;;1.17;1.07;;;;;;;12.64;38.96;103303.29;1658926;86;21086;-51
2021/10/25 03:07:59;;;;;;;1.55;1.17;;;;;;;12.64;38.95;103312.86;1657631;86;21106;-52
2021/10/25 03:10:27;;;;;;;1.45;0.90;;;;;;;12.61;38.94;103312.38;1657752;86;21082;-51
2021/10/25 03:12:54;;;;;;;3.25;2.02;;;;;;;12.57;39.10;103313.22;1658178;86;21079;-52
2021/10/25 03:15:22;;;;;;;1.40;0.85;;;;;;;12.55;39.18;103312.33;1656029;86;21090;-53
2021/10/25 03:17:49;;;;;;;9.58;2.55;;;;;;;12.50;39.13;103304.89;1670647;85;21032;-52
2021/10/25 03:20:24;;;;;;;2.27;1.07;;;;;;;12.47;39.50;103313.98;1685341;85;21511;-52
2021/10/25 03:22:51;;;;;;;2.00;1.00;;;;;;;12.45;39.37;103314.39;1688883;85;20951;-50
2021/10/25 03:25:19;;;;;;;1.92;1.07;;;;;;;12.42;39.50;103311.77;1688820;85;21542;-50
2021/10/25 03:27:47;;;;;;;1.60;0.93;;;;;;;12.42;39.83;103308.27;1710640;82;21018;-52
2021/10/25 03:30:15;;;;;;;2.55;1.05;;;;;;;12.40;40.10;103309.56;1736241;82;21527;-52
2021/10/25 03:32:43;;;;;;;1.65;1.00;;;;;;;12.35;40.23;103304.70;1736676;81;21526;-52
2021/10/25 03:35:12;;;;;;;2.90;1.20;;;;;;;12.32;40.05;103307.72;1687234;84;21570;-51
2021/10/25 03:37:39;;;;;;;1.60;1.15;;;;;;;12.28;39.91;103304.63;1686533;85;21054;-51
2021/10/25 03:40:09;;;;;;;1.05;0.90;;;;;;;12.23;40.27;103305.88;1686316;85;21098;-51
2021/10/25 03:42:42;;;;;;;1.77;1.30;;;;;;;12.21;40.15;103312.39;1686564;85;21057;-52
2021/10/25 03:45:30;;;;;;;1.22;0.90;;;;;;;12.19;40.19;103318.45;1683021;85;21018;-50
2021/10/25 03:48:05;;;;;;;2.15;1.00;;;;;;;12.18;39.99;103314.06;1681301;85;21034;-51
2021/10/25 03:50:31;;;;;;;2.70;1.10;;;;;;;12.15;39.96;103314.94;1683243;85;21019;-52
2021/10/25 04:28:11;;;;;;;1.07;0.98;;;;;;;11.84;39.61;103308.86;1594226;90;21479;-49
2021/10/25 04:30:38;;;;;;;1.07;0.98;;;;;;;11.81;39.31;103310.11;1611305;89;21152;-51
2021/10/25 04:33:05;;;;;;;2.85;1.05;;;;;;;11.81;39.29;103309.27;1594304;90;21614;-49
2021/10/25 04:35:41;;;;;;;1.22;0.90;;;;;;;11.80;39.42;103311.41;1590070;90;21130;-50
2021/10/25 04:38:13;;;;;;;1.52;1.20;;;;;;;11.77;39.77;103307.02;1586752;90;21097;-49
2021/10/25 04:40:40;;;;;;;1.20;1.10;;;;;;;11.77;39.87;103313.54;1590008;90;21010;-51
2021/10/25 04:43:08;;;;;;;0.72;0.72;;;;;;;11.76;39.78;103310.92;1590269;90;21529;-49
2021/10/25 04:45:35;;;;;;;0.82;0.70;;;;;;;11.76;39.78;103314.83;1550145;90;21045;-48
2021/10/25 04:48:04;;;;;;;0.80;0.80;;;;;;;11.75;39.49;103311.75;1597350;90;21103;-51
2021/10/25 04:50:38;;;;;;;1.35;1.07;;;;;;;11.73;39.60;103318.69;1526669;94;21068;-50
2021/10/25 04:53:07;;;;;;;1.00;0.85;;;;;;;11.70;39.94;103321.27;1498517;95;21163;-51
2021/10/25 04:55:34;;;;;;;2.15;0.82;;;;;;;11.69;39.72;103315.58;1508228;95;21129;-50
2021/10/25 04:58:01;;;;;;;1.32;1.02;;;;;;;11.67;40.06;103318.17;1492721;95;21111;-49
2021/10/25 05:00:28;;;;;;;1.42;0.85;;;;;;;11.69;40.20;103319.50;1489329;96;21151;-50
2021/10/25 05:02:59;;;;;;;0.90;0.80;;;;;;;11.68;39.89;103319.95;1489405;96;21669;-50
2021/10/25 05:05:27;;;;;;;1.05;0.90;;;;;;;11.69;39.61;103319.50;1489570;96;21614;-53
2021/10/25 05:07:54;;;;;;;1.02;0.93;;;;;;;11.68;39.62;103320.37;1489474;96;21177;-51
2021/10/25 05:10:23;;;;;;;1.37;0.88;;;;;;;11.66;39.54;103316.83;1489342;96;21148;-51
2021/10/25 05:12:50;;;;;;;1.45;0.72;;;;;;;11.65;39.59;103328.09;1489737;96;21063;-53
2021/10/25 05:15:18;;;;;;;1.00;0.70;;;;;;;11.65;39.65;103330.70;1491524;95;21554;-50
2021/10/25 05:17:45;;;;;;;1.00;0.80;;;;;;;11.66;39.80;103332.48;1503026;95;21114;-51
2021/10/25 05:20:13;;;;;;;3.47;0.80;;;;;;;11.66;39.36;103332.48;1503039;95;21098;-50
2021/10/25 05:22:42;;;;;;;0.80;0.80;;;;;;;11.66;39.71;103340.30;1497488;95;21165;-51
2021/10/25 05:25:09;;;;;;;1.05;0.80;;;;;;;11.66;39.66;103335.09;1503146;95;21097;-52
2021/10/25 05:27:36;;;;;;;2.92;0.85;;;;;;;11.68;39.64;103338.63;1525931;92;21146;-50
2021/10/25 05:30:06;;;;;;;0.88;0.78;;;;;;;11.71;39.94;103350.39;1579912;88;21124;-49
2021/10/25 05:32:33;;;;;;;1.27;0.90;;;;;;;11.71;39.83;103347.36;1680886;83;21038;-50
2021/10/25 05:35:02;;;;;;;2.95;0.80;;;;;;;11.73;39.99;103349.98;1673035;85;21513;-49
2021/10/25 05:37:32;;;;;;;1.57;0.70;;;;;;;11.74;39.59;103346.53;1669953;85;21606;-49
2021/10/25 05:39:59;;;;;;;1.77;1.10;;;;;;;11.76;39.98;103346.13;1670280;85;21025;-50
2021/10/25 05:42:28;;;;;;;1.75;0.90;;;;;;;11.78;39.99;103349.64;1666314;85;21589;-50
2021/10/25 05:44:55;;;;;;;0.70;0.60;;;;;;;11.81;39.98;103352.30;1706635;83;21510;-50
2021/10/25 05:47:22;;;;;;;1.82;0.70;;;;;;;11.85;39.94;103351.49;1710056;83;21040;-51
2021/10/25 05:49:49;;;;;;;0.80;0.80;;;;;;;11.91;39.36;103347.66;1703965;83;21062;-49
2021/10/25 05:52:16;;;;;;;0.60;0.60;;;;;;;11.99;38.76;103348.64;1707559;83;21066;-49
2021/10/25 05:54:43;;;;;;;1.32;0.90;;;;;;;12.05;39.00;103358.73;1738783;82;21039;-50
2021/10/25 05:57:12;;;;;;;0.50;0.50;;;;;;;12.11;39.14;103360.55;1738463;82;21034;-50
2021/10/25 05:59:40;;;;;;;1.05;0.93;;;;;;;12.15;39.11;103360.61;1736767;82;21070;-48
2021/10/25 06:04:43;;;;;;;2.05;0.80;;;;;;;12.26;38.80;103359.45;1653438;86;21126;-51
2021/10/25 06:07:21;;;;;;;0.78;0.55;;;;;;;12.31;38.37;103364.28;1650043;87;21047;-51
2021/10/25 06:09:48;;;;;;;0.80;0.60;;;;;;;12.35;38.20;103366.48;1652939;87;21560;-53
2021/10/25 06:12:19;;;;;;;1.10;0.60;;;;;;;12.39;38.16;103371.77;1653262;87;21505;-52
2021/10/25 06:15:05;;;;;;;0.78;0.60;;;;;;;12.44;38.34;103375.33;1649655;87;21146;-51
2021/10/25 06:20:03;;;;;;;1.42;0.70;;;;;;;12.56;37.73;103383.30;1653252;87;21094;-51
2021/10/25 06:22:35;;;;;;;0.57;0.45;;;;;;;12.58;37.96;103378.98;1653504;87;20995;-54
2021/10/25 06:25:01;;;;;;;0.85;0.85;;;;;;;12.61;38.08;103382.06;1652943;87;21036;-49
2021/10/25 06:27:29;;;;;;;1.30;0.82;;;;;;;12.64;37.71;103383.38;1653484;87;21054;-48
2021/10/25 06:29:56;;;;;;;0.85;0.60;;;;;;;12.64;37.69;103386.88;1652956;86;21109;-50
2021/10/25 06:32:23;;;;;;;1.05;0.62;;;;;;;12.67;37.78;103389.55;1653266;87;20980;-50
2021/10/25 06:34:51;;;;;;;1.90;0.70;;;;;;;12.71;38.14;103393.94;1653306;87;21062;-50
2021/10/25 06:37:27;;;;;;;1.10;0.80;;;;;;;12.78;37.71;103395.74;1648348;87;21075;-51
2021/10/25 06:39:55;;;;;;;1.22;0.80;;;;;;;12.84;37.58;103389.27;1650110;87;21129;-50
2021/10/25 06:42:25;;;;;;;0.50;0.50;;;;;;;12.88;37.12;103396.73;1715801;82;21017;-53
2021/10/25 06:45:03;;;;;;;0.68;0.62;;;;;;;12.89;37.32;103405.01;1733030;82;21006;-50
2021/10/25 06:47:32;;;;;;;1.10;0.60;;;;;;;12.87;37.33;103401.08;1731920;82;21010;-53
2021/10/25 06:50:02;;;;;;;0.93;0.60;;;;;;;12.86;37.41;103403.66;1731380;82;21106;-49
2021/10/25 06:52:30;;;;;;;0.60;0.50;;;;;;;12.84;37.56;103401.03;1706487;82;21069;-50
2021/10/25 06:54:57;;;;;;;1.00;0.60;;;;;;;12.85;37.21;103407.14;1735616;81;21006;-50
2021/10/25 06:57:24;;;;;;;1.12;0.70;;;;;;;12.83;37.46;103402.33;1735702;81;21011;-52
2021/10/25 06:59:53;;;;;;;1.25;0.70;;;;;;;12.82;37.08;103400.14;1734430;81;21081;-54
2021/10/25 07:02:20;;;;;;;1.07;0.80;;;;;;;12.80;37.55;103396.63;1737442;82;21050;-52
2021/10/25 07:04:49;;;;;;;1.15;0.62;;;;;;;12.81;37.88;103401.02;1738720;82;21009;-51
2021/10/25 07:07:17;;;;;;;1.37;0.57;;;;;;;12.83;37.59;103400.61;1725629;82;21006;-50
2021/10/25 07:09:44;;;;;;;0.62;0.60;;;;;;;12.84;36.98;103390.58;1738697;82;21046;-51
2021/10/25 07:12:11;;;;;;;1.32;0.70;;;;;;;12.83;37.07;103397.99;1738467;82;21023;-50
2021/10/25 07:14:40;;;;;;;0.78;0.68;;;;;;;12.86;37.19;103407.16;1734430;82;21039;-51
2021/10/25 07:28:04;;;;;;;2.08;0.98;;;;;;;12.96;36.74;103410.77;1731845;82;21046;-51
2021/10/25 08:07:24;;;;;;;4.67;1.02;;;;;;;13.48;35.28;103399.05;1604133;89;21075;-51
2021/10/25 08:09:50;;;;;;;1.80;0.95;;;;;;;13.52;34.43;103399.52;1607948;88;21035;-50
2021/10/25 08:12:19;;;;;;;1.42;0.85;;;;;;;13.55;34.37;103399.56;1579093;91;21055;-49
2021/10/25 08:14:53;;;;;;;2.98;1.12;;;;;;;13.58;34.54;103396.53;1579111;91;21051;-51
2021/10/25 08:17:21;;;;;;;;;;;;;;;13.63;34.20;103400.49;1577869;91;21039;-52
2021/10/25 08:19:49;;;;;;;1.10;1.00;;;;;;;13.69;34.25;103399.23;1592604;89;20157;-52
2021/10/25 08:22:17;;;;;;;1.27;0.93;;;;;;;13.74;34.16;103405.39;1605524;89;21107;-50
2021/10/25 08:24:47;;;;;;;1.25;1.07;;;;;;;13.77;33.73;103404.08;1554858;91;21111;-52
2021/10/25 08:27:17;;;;;;;1.32;1.20;;;;;;;13.79;33.56;103399.73;1558106;92;21101;-50
2021/10/25 08:29:46;;;;;;;1.72;1.00;;;;;;;13.83;33.62;103404.12;1557893;92;21583;-50
2021/10/25 08:35:16;;;;;;;2.45;0.80;;;;;;;13.88;33.56;103407.23;1557982;92;21073;-51
2021/10/25 08:40:25;;;;;;;1.27;1.17;;;;;;;13.98;33.24;103408.16;1524494;93;20125;-49
2021/10/25 08:42:52;;;;;;;1.20;0.82;;;;;;;14.02;33.23;103402.07;1550087;92;21640;-52
2021/10/25 08:45:27;;;;;;;0.72;0.72;;;;;;;14.07;33.17;103410.84;1547459;92;21065;-50
2021/10/25 08:47:49;;;;;;;1.30;0.80;;;;;;;14.11;32.74;103417.84;1589481;89;21585;-50
2021/10/25 08:50:22;;;;;;;1.20;1.00;;;;;;;14.13;32.73;103413.50;1603013;89;21081;-50
2021/10/25 08:52:50;;;;;;;1.87;1.10;;;;;;;14.17;32.98;103406.09;1594872;89;21042;-49
2021/10/25 08:55:18;;;;;;;1.05;0.90;;;;;;;14.23;32.57;103411.80;1563119;90;21078;-50
2021/10/25 08:57:50;;;;;;;4.97;1.40;;;;;;;14.28;32.61;103418.83;1558580;91;21074;-50
2021/10/25 09:00:21;;;;;;;1.27;1.00;;;;;;;14.34;32.37;103425.86;1558646;92;21085;-49
2021/10/25 09:03:02;;;;;;;0.80;0.70;;;;;;;14.39;32.34;103421.50;1464778;96;21107;-52
2021/10/25 09:05:30;;;;;;;1.40;1.07;;;;;;;14.42;32.28;103423.73;1532211;93;21112;-50
2021/10/25 09:08:05;;;;;;;1.62;1.07;;;;;;;14.46;32.11;103416.32;1537250;93;21090;-51
2021/10/25 09:10:45;;;;;;;1.20;0.95;;;;;;;14.51;31.97;103417.20;1537159;93;21098;-51
2021/10/25 09:13:20;;;;;;;1.25;1.02;;;;;;;14.54;31.77;103411.98;1537279;93;21109;-50
2021/10/25 09:15:55;;;;;;;0.95;0.60;;;;;;;14.58;31.86;103409.81;1544003;92;21067;-49
2021/10/25 09:18:41;;;;;;;1.57;1.27;;;;;;;14.63;31.88;103413.31;1559029;91;21188;-49
2021/10/25 09:21:13;;;;;;;2.75;1.10;;;;;;;14.69;31.37;103414.64;1567248;91;21567;-50
2021/10/25 09:26:23;;;;;;;0.80;0.80;;;;;;;14.76;31.61;103409.41;1494864;96;21041;-53
2021/10/25 09:28:55;;;;;;;1.40;0.95;;;;;;;14.77;31.26;103405.52;1495108;96;21101;-50
2021/10/25 09:31:28;;;;;;;3.15;1.85;;;;;;;14.80;31.39;103412.05;1491814;96;21529;-52
2021/10/25 09:33:59;;;;;;;2.15;1.00;;;;;;;14.81;30.70;103407.27;1496159;96;21115;-51
2021/10/25 09:36:33;;;;;;;3.58;1.10;;;;;;;14.87;30.89;103407.70;1496088;96;21013;-51
2021/10/25 09:39:14;;;;;;;1.40;1.20;;;;;;;14.91;30.70;103402.48;1479464;96;21634;-53
2021/10/25 09:50:20;;;;;;;1.00;0.90;;;;;;;15.04;30.89;103402.08;1478383;96;21115;-51
2021/10/25 09:52:47;;;;;;;1.15;0.90;;;;;;;15.08;30.71;103399.89;1469864;96;21104;-55
2021/10/25 09:55:17;;;;;;;1.77;1.20;;;;;;;15.13;30.53;103403.38;1499076;95;21622;-53
2021/10/25 10:00:30;;;;;;;2.17;1.07;;;;;;;15.20;30.21;103402.53;1469879;97;21205;-51
2021/10/25 10:02:57;;;;;;;1.35;0.95;;;;;;;15.25;30.65;103398.17;1472137;97;21150;-51
2021/10/25 10:05:27;;;;;;;1.40;1.02;;;;;;;15.27;30.16;103392.49;1425375;101;21081;-50
2021/10/25 10:07:55;;;;;;;2.70;2.00;;;;;;;15.31;30.65;103394.24;1425384;101;21105;-50
2021/10/25 10:10:24;;;;;;;2.42;1.50;;;;;;;15.34;30.71;103388.98;1425496;101;21153;-52
2021/10/25 10:12:54;;;;;;;2.00;1.20;;;;;;;15.37;30.45;103392.93;1425432;101;21124;-52
2021/10/25 10:15:25;;;;;;;2.85;1.70;;;;;;;15.38;30.38;103389.41;1429714;100;21085;-52
2021/10/25 10:17:59;;;;;;;1.77;1.50;;;;;;;15.42;30.02;103391.16;1428419;100;21152;-52
2021/10/25 10:20:31;;;;;;;1.72;1.20;;;;;;;15.46;30.77;103392.95;1387009;102;21136;-51
2021/10/25 10:23:02;;;;;;;1.70;1.32;;;;;;;15.50;31.41;103384.19;1398845;99;21217;-51
2021/10/25 10:25:34;;;;;;;1.35;1.25;;;;;;;15.53;31.65;103381.59;1433269;99;21080;-52
2021/10/25 10:28:09;;;;;;;1.57;1.00;;;;;;;15.59;31.49;103378.95;1418168;101;21098;-54
2021/10/25 10:30:57;;;;;;;1.50;1.15;;;;;;;15.63;31.75;103376.76;1417990;101;21606;-51
2021/10/25 10:33:43;;;;;;;1.75;1.22;;;;;;;15.67;31.75;103374.56;1403221;102;21105;-53
2021/10/25 10:36:22;;;;;;;3.92;1.22;;;;;;;15.67;31.46;103371.94;1470707;97;21119;-52
2021/10/25 10:39:05;;;;;;;1.55;1.07;;;;;;;15.69;31.42;103378.06;1513320;94;21117;-50
2021/10/25 10:41:53;;;;;;;2.75;1.30;;;;;;;15.73;31.00;103367.11;1498232;94;21114;-51
2021/10/25 10:44:32;;;;;;;2.22;1.42;;;;;;;15.75;30.92;103364.92;1489640;96;21568;-52
2021/10/25 10:47:09;;;;;;;1.42;1.30;;;;;;;15.78;31.45;103370.19;1491233;96;21112;-51
2021/10/25 10:55:26;;;;;;;2.12;1.15;;;;;;;15.90;31.03;103360.08;1397701;101;21178;-53
2021/10/25 11:00:47;;;;;;;2.22;1.30;;;;;;;15.98;31.04;103360.50;1404515;102;21215;-49
2021/10/25 11:03:21;;;;;;;1.30;1.20;;;;;;;16.02;31.19;103355.67;1400468;102;21125;-51
2021/10/25 11:05:56;;;;;;;1.72;1.10;;;;;;;16.05;31.28;103356.95;1403087;102;21113;-51
2021/10/25 11:08:27;;;;;;;1.35;0.95;;;;;;;16.04;31.04;103355.23;1377749;103;21201;-50
2021/10/25 11:11:15;;;;;;;2.27;1.45;;;;;;;16.02;31.22;103353.05;1383176;103;21144;-49
2021/10/25 11:13:54;;;;;;;2.25;1.40;;;;;;;16.05;30.79;103359.59;1374631;104;21135;-51
2021/10/25 11:18:59;;;;;;;1.60;1.25;;;;;;;16.11;31.00;103354.34;1405478;96;21153;-53
2021/10/25 11:21:38;;;;;;;2.17;1.22;;;;;;;16.14;30.76;103357.38;1501145;95;21098;-49
2021/10/25 11:24:10;;;;;;;2.22;1.10;;;;;;;16.15;30.88;103356.08;1511047;95;21106;-52
2021/10/25 11:26:44;;;;;;;;;;;;;;;16.14;30.78;103351.69;1513509;95;21085;-51
2021/10/25 11:29:20;;;;;;;2.85;1.30;;;;;;;16.11;30.79;103349.09;1510945;95;20451;-50
2021/10/25 11:31:54;;;;;;;1.42;1.10;;;;;;;16.07;31.00;103343.38;1510976;95;21586;-52
2021/10/25 11:34:32;;;;;;;2.37;1.10;;;;;;;16.09;31.01;103342.94;1470489;98;21104;-49
2021/10/25 11:37:16;;;;;;;2.40;1.32;;;;;;;16.12;31.05;103349.50;1470493;98;21135;-51
2021/10/25 11:40:06;;;;;;;1.57;1.45;;;;;;;16.16;31.05;103347.30;1469963;97;21117;-51
2021/10/25 11:42:39;;;;;;;1.40;1.10;;;;;;;16.21;31.12;103349.91;1472504;97;21093;-50
2021/10/25 11:45:13;;;;;;;4.33;1.50;;;;;;;16.25;31.04;103349.02;1451174;97;21152;-51
2021/10/25 11:47:44;;;;;;;1.35;1.05;;;;;;;16.26;30.91;103341.13;1499264;94;21161;-52
2021/10/25 11:50:20;;;;;;;2.72;1.60;;;;;;;16.28;31.02;103348.56;1534342;93;21105;-50
2021/10/25 11:52:58;;;;;;;2.02;1.20;;;;;;;16.29;30.75;103343.75;1547167;92;21042;-51
2021/10/25 11:55:31;;;;;;;2.17;1.10;;;;;;;16.27;30.77;103342.89;1542506;92;21089;-51
2021/10/25 11:58:04;;;;;;;2.35;1.42;;;;;;;16.28;31.04;103339.36;1513165;94;21102;-50
2021/10/25 12:00:38;;;;;;;1.85;1.40;;;;;;;16.28;30.78;103335.42;1565259;91;21063;-51
2021/10/25 12:03:17;;;;;;;2.42;1.20;;;;;;;16.29;30.79;103331.93;1494171;95;21075;-49
2021/10/25 12:05:45;;;;;;;1.98;1.32;;;;;;;16.32;30.94;103331.48;1377440;103;21746;-51
2021/10/25 12:08:13;;;;;;;1.77;1.20;;;;;;;16.33;30.82;103330.58;1377408;103;21130;-51
2021/10/25 12:10:41;;;;;;;2.50;1.12;;;;;;;16.33;30.81;103321.39;1377622;103;21125;-50
2021/10/25 12:13:10;;;;;;;1.60;1.07;;;;;;;16.33;30.95;103325.33;1377190;103;21107;-50
2021/10/25 12:15:47;;;;;;;1.20;1.00;;;;;;;16.33;31.26;103321.39;1377538;103;21149;-51
2021/10/25 12:18:17;;;;;;;2.17;1.25;;;;;;;16.33;30.95;103326.64;1331452;106;21144;-51
2021/10/25 12:20:44;;;;;;;2.62;1.10;;;;;;;16.32;30.93;103328.85;1370846;104;21175;-49
2021/10/25 12:23:16;;;;;;;1.60;1.20;;;;;;;16.28;30.94;103331.48;1366443;104;21635;-50
2021/10/25 12:25:45;;;;;;;2.12;1.30;;;;;;;16.27;30.60;103328.44;1362562;104;21130;-49
2021/10/25 12:28:20;;;;;;;1.72;1.30;;;;;;;16.26;30.54;103329.30;1368599;104;21219;-51
2021/10/25 12:33:22;;;;;;;1.40;1.10;;;;;;;16.27;31.04;103328.44;1363813;105;21180;-51
2021/10/25 12:35:49;;;;;;;2.50;1.20;;;;;;;16.26;31.39;103331.92;1373191;104;21596;-51
2021/10/25 12:38:18;;;;;;;1.25;1.10;;;;;;;16.25;31.10;103327.57;1380049;104;21231;-53
2021/10/25 12:40:53;;;;;;;1.75;1.25;;;;;;;16.25;30.72;103321.00;1392383;102;21669;-50
2021/10/25 12:43:20;;;;;;;1.82;1.40;;;;;;;16.26;30.99;103323.16;1358989;106;21215;-50
2021/10/25 12:46:02;;;;;;;3.33;1.30;;;;;;;16.25;31.05;103317.49;1359064;106;21211;-52
2021/10/25 12:48:50;;;;;;;1.45;1.35;;;;;;;16.24;30.83;103315.30;1359194;106;21671;-51
2021/10/25 12:51:18;;;;;;;2.00;1.27;;;;;;;16.24;30.59;103319.23;1340096;107;21739;-51
2021/10/25 12:53:47;;;;;;;1.75;1.10;;;;;;;16.22;30.92;103317.06;1346143;101;21248;-51
2021/10/25 12:56:18;;;;;;;2.05;1.10;;;;;;;16.21;30.85;103312.70;1389798;101;21131;-52
2021/10/25 12:58:44;;;;;;;1.40;1.00;;;;;;;16.20;30.75;103309.62;1394182;103;21136;-50
2021/10/25 13:01:12;;;;;;;2.17;1.17;;;;;;;16.20;30.86;103309.62;1396426;101;21668;-55
2021/10/25 13:03:47;;;;;;;1.45;1.22;;;;;;;16.21;31.03;103307.45;1506987;94;21087;-51
2021/10/25 13:06:13;;;;;;;1.82;1.00;;;;;;;16.21;31.02;103306.14;1511463;94;21049;-55
2021/10/25 13:08:40;;;;;;;2.33;1.17;;;;;;;16.19;31.05;103305.70;1515528;94;21177;-49
2021/10/25 13:11:09;;;;;;;1.30;1.20;;;;;;;16.19;30.93;103306.58;1515446;94;21579;-51
2021/10/25 13:13:36;;;;;;;1.32;1.17;;;;;;;16.19;30.91;103307.90;1515439;94;21603;-52
2021/10/25 13:16:06;;;;;;;1.70;1.32;;;;;;;16.17;30.83;103296.52;1517910;94;21089;-55
2021/10/25 13:18:35;;;;;;;1.62;1.25;;;;;;;16.16;30.87;103298.70;1516919;94;21604;-54
2021/10/25 13:21:01;;;;;;;1.30;1.20;;;;;;;16.16;30.82;103296.50;1512592;94;21100;-50
2021/10/25 13:23:28;;;;;;;1.20;1.10;;;;;;;16.16;30.81;103298.70;1547505;92;21596;-50
2021/10/25 13:25:55;;;;;;;1.85;1.15;;;;;;;16.16;30.78;103303.95;1535656;92;21107;-50
2021/10/25 13:28:22;;;;;;;1.95;1.12;;;;;;;16.17;31.05;103301.78;1528808;93;21202;-51
2021/10/25 13:30:49;;;;;;;2.62;2.20;;;;;;;16.17;31.20;103303.09;1490595;95;21158;-51
2021/10/25 13:33:15;;;;;;;3.00;2.60;;;;;;;16.16;31.52;103297.39;1533209;93;21066;-52
2021/10/25 13:35:42;;;;;;;3.00;1.45;;;;;;;16.17;31.62;103293.02;1557544;86;21089;-51
2021/10/25 13:38:09;;;;;;;3.37;1.47;;;;;;;16.16;31.10;103290.82;1664625;86;21018;-51